Terminal Aerodrome Forecast
Issued by NWS

Home | Current Version | Previous Version | Text Only | Print | Product List | Glossary On
Versions: 1 2 3 4 5 6 7 8 9 10 11 12 13 14 15 16 17 18 19 20
000
FTUS46 KSTO 272300 RRA
TAFMHR
TAF
KMHR 272341Z 2800/2824 VRB04KT P6SM BKN150
     FM280700 33004KT 4SM BR SCT150
      TEMPO 2814/2818 33005KT 2SM BR
     FM281900 32005KT P6SM FEW200=

USA.gov is the U.S. government's official web portal to all federal, state and local government web resources and services.